sensor_id;sensor_type;location;lat;lon;timestamp;temperature;humidity
23069;DHT22;11702;50.856;4.348;2022-10-12T00:00:57;8.40;99.90
23069;DHT22;11702;50.856;4.348;2022-10-12T00:03:23;8.30;99.90
23069;DHT22;11702;50.856;4.348;2022-10-12T00:06:10;8.30;99.90
23069;DHT22;11702;50.856;4.348;2022-10-12T00:08:37;8.30;99.90
23069;DHT22;11702;50.856;4.348;2022-10-12T00:11:04;8.30;99.90
23069;DHT22;11702;50.856;4.348;2022-10-12T00:13:30;8.30;99.90
23069;DHT22;11702;50.856;4.348;2022-10-12T00:15:56;8.20;99.90
23069;DHT22;11702;50.856;4.348;2022-10-12T00:18:21;8.10;99.90
23069;DHT22;11702;50.856;4.348;2022-10-12T00:20:47;8.10;99.90
23069;DHT22;11702;50.856;4.348;2022-10-12T00:23:13;8.10;99.90
23069;DHT22;11702;50.856;4.348;2022-10-12T00:25:40;8.00;99.90
23069;DHT22;11702;50.856;4.348;2022-10-12T00:28:08;8.00;99.90
23069;DHT22;11702;50.856;4.348;2022-10-12T00:30:34;8.00;99.90
23069;DHT22;11702;50.856;4.348;2022-10-12T00:33:03;8.00;99.90
23069;DHT22;11702;50.856;4.348;2022-10-12T00:35:29;8.00;99.90
23069;DHT22;11702;50.856;4.348;2022-10-12T00:37:54;8.00;99.90
23069;DHT22;11702;50.856;4.348;2022-10-12T00:40:21;7.90;99.90
23069;DHT22;11702;50.856;4.348;2022-10-12T00:42:47;7.90;99.90
23069;DHT22;11702;50.856;4.348;2022-10-12T00:45:14;7.80;99.90
23069;DHT22;11702;50.856;4.348;2022-10-12T00:47:47;7.70;99.90
23069;DHT22;11702;50.856;4.348;2022-10-12T00:50:21;7.70;99.90
23069;DHT22;11702;50.856;4.348;2022-10-12T00:53:00;7.70;99.90
23069;DHT22;11702;50.856;4.348;2022-10-12T00:55:31;7.70;99.90
23069;DHT22;11702;50.856;4.348;2022-10-12T00:57:58;7.60;99.90
23069;DHT22;11702;50.856;4.348;2022-10-12T01:00:25;7.70;99.90
23069;DHT22;11702;50.856;4.348;2022-10-12T01:02:52;7.70;99.90
23069;DHT22;11702;50.856;4.348;2022-10-12T01:05:19;7.70;99.90
23069;DHT22;11702;50.856;4.348;2022-10-12T01:07:45;7.60;99.90
23069;DHT22;11702;50.856;4.348;2022-10-12T01:10:11;7.60;99.90
23069;DHT22;11702;50.856;4.348;2022-10-12T01:12:45;7.60;99.90
23069;DHT22;11702;50.856;4.348;2022-10-12T01:15:19;7.50;99.90
23069;DHT22;11702;50.856;4.348;2022-10-12T01:17:57;7.50;99.90
23069;DHT22;11702;50.856;4.348;2022-10-12T01:33:03;7.50;99.90
23069;DHT22;11702;50.856;4.348;2022-10-12T01:35:41;7.50;99.90
23069;DHT22;11702;50.856;4.348;2022-10-12T01:38:20;7.50;99.90
23069;DHT22;11702;50.856;4.348;2022-10-12T01:43:39;7.40;99.90
23069;DHT22;11702;50.856;4.348;2022-10-12T01:48:57;7.50;99.90
23069;DHT22;11702;50.856;4.348;2022-10-12T01:51:42;7.40;99.90
23069;DHT22;11702;50.856;4.348;2022-10-12T02:00:14;7.40;99.90
23069;DHT22;11702;50.856;4.348;2022-10-12T02:02:54;7.40;99.90
23069;DHT22;11702;50.856;4.348;2022-10-12T02:05:42;7.40;99.90
23069;DHT22;11702;50.856;4.348;2022-10-12T02:10:46;7.30;99.90
23069;DHT22;11702;50.856;4.348;2022-10-12T02:13:13;7.30;99.90
23069;DHT22;11702;50.856;4.348;2022-10-12T02:15:42;7.40;99.90
23069;DHT22;11702;50.856;4.348;2022-10-12T02:18:10;7.30;99.90
23069;DHT22;11702;50.856;4.348;2022-10-12T02:20:37;7.20;99.90
23069;DHT22;11702;50.856;4.348;2022-10-12T02:23:04;7.20;99.90
23069;DHT22;11702;50.856;4.348;2022-10-12T02:25:32;7.20;99.90
23069;DHT22;11702;50.856;4.348;2022-10-12T02:28:04;7.20;99.90
23069;DHT22;11702;50.856;4.348;2022-10-12T02:30:36;7.20;99.90
23069;DHT22;11702;50.856;4.348;2022-10-12T02:33:10;7.30;99.90
23069;DHT22;11702;50.856;4.348;2022-10-12T02:35:51;7.20;99.90
23069;DHT22;11702;50.856;4.348;2022-10-12T02:38:24;7.20;99.90
23069;DHT22;11702;50.856;4.348;2022-10-12T02:40:57;7.20;99.90
23069;DHT22;11702;50.856;4.348;2022-10-12T02:43:52;7.30;99.90
23069;DHT22;11702;50.856;4.348;2022-10-12T02:46:17;7.30;99.90
23069;DHT22;11702;50.856;4.348;2022-10-12T02:48:43;7.20;99.90
23069;DHT22;11702;50.856;4.348;2022-10-12T02:51:11;7.20;99.90
23069;DHT22;11702;50.856;4.348;2022-10-12T02:53:37;7.20;99.90
23069;DHT22;11702;50.856;4.348;2022-10-12T02:56:11;7.10;99.90
23069;DHT22;11702;50.856;4.348;2022-10-12T02:58:37;7.10;99.90
23069;DHT22;11702;50.856;4.348;2022-10-12T03:01:03;7.10;99.90
23069;DHT22;11702;50.856;4.348;2022-10-12T03:03:29;7.10;99.90
23069;DHT22;11702;50.856;4.348;2022-10-12T03:05:55;7.20;99.90
23069;DHT22;11702;50.856;4.348;2022-10-12T03:08:20;7.30;99.90
23069;DHT22;11702;50.856;4.348;2022-10-12T03:10:46;7.10;99.90
23069;DHT22;11702;50.856;4.348;2022-10-12T03:13:11;7.10;99.90
23069;DHT22;11702;50.856;4.348;2022-10-12T03:15:37;7.10;99.90
23069;DHT22;11702;50.856;4.348;2022-10-12T03:18:03;7.10;99.90
23069;DHT22;11702;50.856;4.348;2022-10-12T03:20:28;7.10;99.90
23069;DHT22;11702;50.856;4.348;2022-10-12T03:22:54;7.20;99.90
23069;DHT22;11702;50.856;4.348;2022-10-12T03:25:19;7.20;99.90
23069;DHT22;11702;50.856;4.348;2022-10-12T03:27:45;7.20;99.90
23069;DHT22;11702;50.856;4.348;2022-10-12T03:30:11;7.20;99.90
23069;DHT22;11702;50.856;4.348;2022-10-12T03:32:37;7.20;99.90
23069;DHT22;11702;50.856;4.348;2022-10-12T03:35:04;7.20;99.90
23069;DHT22;11702;50.856;4.348;2022-10-12T03:37:30;7.20;99.90
23069;DHT22;11702;50.856;4.348;2022-10-12T03:39:56;7.20;99.90
23069;DHT22;11702;50.856;4.348;2022-10-12T03:42:21;7.20;99.90
23069;DHT22;11702;50.856;4.348;2022-10-12T03:44:47;7.30;99.90
23069;DHT22;11702;50.856;4.348;2022-10-12T03:47:12;7.20;99.90
23069;DHT22;11702;50.856;4.348;2022-10-12T03:49:38;7.20;99.90
23069;DHT22;11702;50.856;4.348;2022-10-12T03:52:04;7.20;99.90
23069;DHT22;11702;50.856;4.348;2022-10-12T03:54:29;7.10;99.90
23069;DHT22;11702;50.856;4.348;2022-10-12T03:56:55;7.20;99.90
23069;DHT22;11702;50.856;4.348;2022-10-12T03:59:21;7.20;99.90
23069;DHT22;11702;50.856;4.348;2022-10-12T04:01:47;7.20;99.90
23069;DHT22;11702;50.856;4.348;2022-10-12T04:04:12;7.20;99.90
23069;DHT22;11702;50.856;4.348;2022-10-12T04:06:38;7.10;99.90
23069;DHT22;11702;50.856;4.348;2022-10-12T04:09:04;7.10;99.90
23069;DHT22;11702;50.856;4.348;2022-10-12T04:11:29;7.20;99.90
23069;DHT22;11702;50.856;4.348;2022-10-12T04:13:55;7.20;99.90
23069;DHT22;11702;50.856;4.348;2022-10-12T04:16:20;7.40;99.90
23069;DHT22;11702;50.856;4.348;2022-10-12T04:18:46;7.30;99.90
23069;DHT22;11702;50.856;4.348;2022-10-12T04:21:14;7.20;99.90
23069;DHT22;11702;50.856;4.348;2022-10-12T04:23:40;7.10;99.90
23069;DHT22;11702;50.856;4.348;2022-10-12T04:26:06;7.20;99.90
23069;DHT22;11702;50.856;4.348;2022-10-12T04:28:33;7.10;99.90
23069;DHT22;11702;50.856;4.348;2022-10-12T04:30:58;7.00;99.90
23069;DHT22;11702;50.856;4.348;2022-10-12T04:33:24;7.10;99.90
23069;DHT22;11702;50.856;4.348;2022-10-12T04:35:50;7.20;99.90
23069;DHT22;11702;50.856;4.348;2022-10-12T04:38:15;7.20;99.90
23069;DHT22;11702;50.856;4.348;2022-10-12T04:40:48;7.20;99.90
23069;DHT22;11702;50.856;4.348;2022-10-12T04:43:15;7.20;99.90
23069;DHT22;11702;50.856;4.348;2022-10-12T04:45:41;7.20;99.90
23069;DHT22;11702;50.856;4.348;2022-10-12T04:48:06;7.20;99.90
23069;DHT22;11702;50.856;4.348;2022-10-12T04:50:32;7.20;99.90
23069;DHT22;11702;50.856;4.348;2022-10-12T04:52:58;7.20;99.90
23069;DHT22;11702;50.856;4.348;2022-10-12T04:55:25;7.30;99.90
23069;DHT22;11702;50.856;4.348;2022-10-12T04:57:51;7.30;99.90
23069;DHT22;11702;50.856;4.348;2022-10-12T05:00:16;7.40;99.90
23069;DHT22;11702;50.856;4.348;2022-10-12T05:02:42;7.30;99.90
23069;DHT22;11702;50.856;4.348;2022-10-12T05:05:08;7.30;99.90
23069;DHT22;11702;50.856;4.348;2022-10-12T05:07:34;7.40;99.90
23069;DHT22;11702;50.856;4.348;2022-10-12T05:09:59;7.30;99.90
23069;DHT22;11702;50.856;4.348;2022-10-12T05:12:25;7.30;99.90
23069;DHT22;11702;50.856;4.348;2022-10-12T05:14:51;7.30;99.90
23069;DHT22;11702;50.856;4.348;2022-10-12T05:17:16;7.40;99.90
23069;DHT22;11702;50.856;4.348;2022-10-12T05:19:42;7.30;99.90
23069;DHT22;11702;50.856;4.348;2022-10-12T05:22:07;7.30;99.90
23069;DHT22;11702;50.856;4.348;2022-10-12T05:24:33;7.40;99.90
23069;DHT22;11702;50.856;4.348;2022-10-12T05:26:59;7.40;99.90
23069;DHT22;11702;50.856;4.348;2022-10-12T05:29:24;7.30;99.90
23069;DHT22;11702;50.856;4.348;2022-10-12T05:31:50;7.30;99.90
23069;DHT22;11702;50.856;4.348;2022-10-12T05:34:15;7.40;99.90
23069;DHT22;11702;50.856;4.348;2022-10-12T05:36:41;7.40;99.90
23069;DHT22;11702;50.856;4.348;2022-10-12T05:39:07;7.30;99.90
23069;DHT22;11702;50.856;4.348;2022-10-12T05:41:33;7.30;99.90
23069;DHT22;11702;50.856;4.348;2022-10-12T05:43:58;7.30;99.90
23069;DHT22;11702;50.856;4.348;2022-10-12T05:46:24;7.20;99.90
23069;DHT22;11702;50.856;4.348;2022-10-12T05:48:49;7.30;99.90
23069;DHT22;11702;50.856;4.348;2022-10-12T05:51:15;7.20;99.90
23069;DHT22;11702;50.856;4.348;2022-10-12T05:53:41;7.20;99.90
23069;DHT22;11702;50.856;4.348;2022-10-12T05:56:07;7.20;99.90
23069;DHT22;11702;50.856;4.348;2022-10-12T05:58:32;7.30;99.90
23069;DHT22;11702;50.856;4.348;2022-10-12T06:01:06;7.40;99.90
23069;DHT22;11702;50.856;4.348;2022-10-12T06:03:33;7.40;99.90
23069;DHT22;11702;50.856;4.348;2022-10-12T06:05:58;7.40;99.90
23069;DHT22;11702;50.856;4.348;2022-10-12T06:08:24;7.30;99.90
23069;DHT22;11702;50.856;4.348;2022-10-12T06:10:50;7.30;99.90
23069;DHT22;11702;50.856;4.348;2022-10-12T06:13:17;7.30;99.90
23069;DHT22;11702;50.856;4.348;2022-10-12T06:15:45;7.30;99.90
23069;DHT22;11702;50.856;4.348;2022-10-12T06:18:11;7.30;99.90
23069;DHT22;11702;50.856;4.348;2022-10-12T06:20:37;7.40;99.90
23069;DHT22;11702;50.856;4.348;2022-10-12T06:23:02;7.40;99.90
23069;DHT22;11702;50.856;4.348;2022-10-12T06:25:28;7.50;99.90
23069;DHT22;11702;50.856;4.348;2022-10-12T06:27:54;7.50;99.90
23069;DHT22;11702;50.856;4.348;2022-10-12T06:30:19;7.60;99.90
23069;DHT22;11702;50.856;4.348;2022-10-12T06:32:45;7.60;99.90
23069;DHT22;11702;50.856;4.348;2022-10-12T06:35:10;7.80;99.90
23069;DHT22;11702;50.856;4.348;2022-10-12T06:37:36;7.80;99.90
23069;DHT22;11702;50.856;4.348;2022-10-12T06:40:02;7.90;99.90
23069;DHT22;11702;50.856;4.348;2022-10-12T06:42:28;8.10;99.90
23069;DHT22;11702;50.856;4.348;2022-10-12T06:44:53;8.20;99.90
23069;DHT22;11702;50.856;4.348;2022-10-12T06:47:19;8.40;99.90
23069;DHT22;11702;50.856;4.348;2022-10-12T06:49:45;8.50;99.90
23069;DHT22;11702;50.856;4.348;2022-10-12T06:52:10;8.70;99.90
23069;DHT22;11702;50.856;4.348;2022-10-12T06:54:36;8.80;99.90
23069;DHT22;11702;50.856;4.348;2022-10-12T06:57:04;8.80;99.90
23069;DHT22;11702;50.856;4.348;2022-10-12T06:59:30;8.90;99.90
23069;DHT22;11702;50.856;4.348;2022-10-12T07:01:55;8.90;99.90
23069;DHT22;11702;50.856;4.348;2022-10-12T07:04:21;9.10;99.90
23069;DHT22;11702;50.856;4.348;2022-10-12T07:06:47;9.10;99.90
23069;DHT22;11702;50.856;4.348;2022-10-12T07:09:12;9.20;99.90
23069;DHT22;11702;50.856;4.348;2022-10-12T07:11:38;9.10;99.90
23069;DHT22;11702;50.856;4.348;2022-10-12T07:14:04;9.30;99.90
23069;DHT22;11702;50.856;4.348;2022-10-12T07:16:29;9.40;99.90
23069;DHT22;11702;50.856;4.348;2022-10-12T07:18:56;9.50;99.90
23069;DHT22;11702;50.856;4.348;2022-10-12T07:21:21;9.60;99.90
23069;DHT22;11702;50.856;4.348;2022-10-12T07:23:47;9.80;99.90
23069;DHT22;11702;50.856;4.348;2022-10-12T07:26:13;9.90;99.90
23069;DHT22;11702;50.856;4.348;2022-10-12T07:28:40;10.00;99.90
23069;DHT22;11702;50.856;4.348;2022-10-12T07:31:07;10.20;99.90
23069;DHT22;11702;50.856;4.348;2022-10-12T07:33:36;10.30;99.90
23069;DHT22;11702;50.856;4.348;2022-10-12T07:36:04;10.40;99.90
23069;DHT22;11702;50.856;4.348;2022-10-12T07:38:30;10.50;99.90
23069;DHT22;11702;50.856;4.348;2022-10-12T07:41:02;10.60;99.90
23069;DHT22;11702;50.856;4.348;2022-10-12T07:43:29;10.70;99.90
23069;DHT22;11702;50.856;4.348;2022-10-12T07:45:55;10.90;99.90
23069;DHT22;11702;50.856;4.348;2022-10-12T07:48:21;11.00;99.90
23069;DHT22;11702;50.856;4.348;2022-10-12T07:50:47;11.10;99.90
23069;DHT22;11702;50.856;4.348;2022-10-12T07:53:13;11.20;99.90
23069;DHT22;11702;50.856;4.348;2022-10-12T07:55:38;11.30;99.90
23069;DHT22;11702;50.856;4.348;2022-10-12T07:58:04;11.40;99.90
23069;DHT22;11702;50.856;4.348;2022-10-12T08:00:30;11.50;99.90
23069;DHT22;11702;50.856;4.348;2022-10-12T08:02:57;11.70;99.90
23069;DHT22;11702;50.856;4.348;2022-10-12T08:05:23;11.70;99.90
23069;DHT22;11702;50.856;4.348;2022-10-12T08:07:50;11.80;99.90
23069;DHT22;11702;50.856;4.348;2022-10-12T08:10:17;11.80;99.90
23069;DHT22;11702;50.856;4.348;2022-10-12T08:12:44;11.80;99.90
23069;DHT22;11702;50.856;4.348;2022-10-12T08:15:10;11.80;99.90
23069;DHT22;11702;50.856;4.348;2022-10-12T08:17:37;11.90;99.90
23069;DHT22;11702;50.856;4.348;2022-10-12T08:20:03;12.10;99.90
23069;DHT22;11702;50.856;4.348;2022-10-12T08:22:29;12.20;99.90
23069;DHT22;11702;50.856;4.348;2022-10-12T08:24:55;12.20;99.90
23069;DHT22;11702;50.856;4.348;2022-10-12T08:27:20;12.30;99.90
23069;DHT22;11702;50.856;4.348;2022-10-12T08:29:46;12.40;99.90
23069;DHT22;11702;50.856;4.348;2022-10-12T08:32:12;12.30;99.90
23069;DHT22;11702;50.856;4.348;2022-10-12T08:34:37;12.10;99.90
23069;DHT22;11702;50.856;4.348;2022-10-12T08:37:03;12.10;99.90
23069;DHT22;11702;50.856;4.348;2022-10-12T08:39:29;12.20;99.90
23069;DHT22;11702;50.856;4.348;2022-10-12T08:42:50;12.20;99.90
23069;DHT22;11702;50.856;4.348;2022-10-12T08:47:39;11.80;99.90
23069;DHT22;11702;50.856;4.348;2022-10-12T08:50:20;11.90;99.90
23069;DHT22;11702;50.856;4.348;2022-10-12T08:53:01;12.10;99.90
23069;DHT22;11702;50.856;4.348;2022-10-12T08:55:41;12.00;99.90
23069;DHT22;11702;50.856;4.348;2022-10-12T08:58:16;12.10;99.90
23069;DHT22;11702;50.856;4.348;2022-10-12T09:00:47;12.10;99.90
23069;DHT22;11702;50.856;4.348;2022-10-12T09:07:14;12.10;99.90
23069;DHT22;11702;50.856;4.348;2022-10-12T09:09:46;12.30;99.90
23069;DHT22;11702;50.856;4.348;2022-10-12T09:14:44;12.50;99.90
23069;DHT22;11702;50.856;4.348;2022-10-12T09:17:36;12.60;99.90
23069;DHT22;11702;50.856;4.348;2022-10-12T09:20:21;12.70;99.90
23069;DHT22;11702;50.856;4.348;2022-10-12T09:22:54;12.80;99.90
23069;DHT22;11702;50.856;4.348;2022-10-12T09:25:26;12.90;99.90
23069;DHT22;11702;50.856;4.348;2022-10-12T09:27:53;12.90;99.90
23069;DHT22;11702;50.856;4.348;2022-10-12T09:30:21;12.90;99.90
23069;DHT22;11702;50.856;4.348;2022-10-12T09:33:11;13.00;99.90
23069;DHT22;11702;50.856;4.348;2022-10-12T09:35:39;13.10;99.90
23069;DHT22;11702;50.856;4.348;2022-10-12T09:38:08;13.40;99.90
23069;DHT22;11702;50.856;4.348;2022-10-12T09:40:35;13.60;99.90
23069;DHT22;11702;50.856;4.348;2022-10-12T09:43:02;13.60;99.90
23069;DHT22;11702;50.856;4.348;2022-10-12T09:45:29;13.70;99.90
23069;DHT22;11702;50.856;4.348;2022-10-12T09:48:16;13.60;99.90
23069;DHT22;11702;50.856;4.348;2022-10-12T09:50:43;13.90;99.90
23069;DHT22;11702;50.856;4.348;2022-10-12T09:53:25;14.20;99.90
23069;DHT22;11702;50.856;4.348;2022-10-12T09:56:06;14.30;99.90
23069;DHT22;11702;50.856;4.348;2022-10-12T09:58:40;14.40;99.90
23069;DHT22;11702;50.856;4.348;2022-10-12T10:03:48;14.60;99.90
23069;DHT22;11702;50.856;4.348;2022-10-12T10:06:23;14.70;99.90
23069;DHT22;11702;50.856;4.348;2022-10-12T10:08:49;14.70;99.90
23069;DHT22;11702;50.856;4.348;2022-10-12T10:11:20;14.50;99.90
23069;DHT22;11702;50.856;4.348;2022-10-12T10:13:49;14.50;99.90
23069;DHT22;11702;50.856;4.348;2022-10-12T10:16:18;14.60;99.90
23069;DHT22;11702;50.856;4.348;2022-10-12T10:18:48;14.90;99.90
23069;DHT22;11702;50.856;4.348;2022-10-12T10:21:36;14.90;99.90
23069;DHT22;11702;50.856;4.348;2022-10-12T10:24:16;15.10;99.90
23069;DHT22;11702;50.856;4.348;2022-10-12T10:26:57;15.30;99.90
23069;DHT22;11702;50.856;4.348;2022-10-12T10:32:06;15.20;99.90
23069;DHT22;11702;50.856;4.348;2022-10-12T10:34:36;15.40;99.90
23069;DHT22;11702;50.856;4.348;2022-10-12T10:37:03;15.70;99.90
23069;DHT22;11702;50.856;4.348;2022-10-12T10:39:48;15.70;99.90
23069;DHT22;11702;50.856;4.348;2022-10-12T10:42:19;15.70;99.90
23069;DHT22;11702;50.856;4.348;2022-10-12T10:45:06;15.90;99.90
23069;DHT22;11702;50.856;4.348;2022-10-12T10:47:40;16.20;99.90
23069;DHT22;11702;50.856;4.348;2022-10-12T10:50:20;16.30;99.90
23069;DHT22;11702;50.856;4.348;2022-10-12T10:52:51;16.50;99.90
23069;DHT22;11702;50.856;4.348;2022-10-12T10:55:49;16.70;99.90
23069;DHT22;11702;50.856;4.348;2022-10-12T10:58:44;17.00;99.90
23069;DHT22;11702;50.856;4.348;2022-10-12T11:04:43;17.40;99.90
23069;DHT22;11702;50.856;4.348;2022-10-12T11:07:52;17.50;99.90
23069;DHT22;11702;50.856;4.348;2022-10-12T11:10:35;17.70;99.90
23069;DHT22;11702;50.856;4.348;2022-10-12T11:13:18;17.80;99.90
23069;DHT22;11702;50.856;4.348;2022-10-12T11:20:20;18.00;99.90
23069;DHT22;11702;50.856;4.348;2022-10-12T11:22:55;17.90;99.90
23069;DHT22;11702;50.856;4.348;2022-10-12T11:28:39;17.60;99.90
23069;DHT22;11702;50.856;4.348;2022-10-12T11:31:19;17.80;99.90
23069;DHT22;11702;50.856;4.348;2022-10-12T11:33:51;17.70;99.90
23069;DHT22;11702;50.856;4.348;2022-10-12T11:36:54;17.60;99.90
23069;DHT22;11702;50.856;4.348;2022-10-12T11:39:39;17.50;99.90
23069;DHT22;11702;50.856;4.348;2022-10-12T11:42:23;17.40;99.90
23069;DHT22;11702;50.856;4.348;2022-10-12T11:45:32;17.20;99.90
23069;DHT22;11702;50.856;4.348;2022-10-12T11:48:25;17.20;99.90
23069;DHT22;11702;50.856;4.348;2022-10-12T11:51:18;17.10;99.90
23069;DHT22;11702;50.856;4.348;2022-10-12T11:57:11;17.10;99.90
23069;DHT22;11702;50.856;4.348;2022-10-12T12:00:06;17.10;99.90
23069;DHT22;11702;50.856;4.348;2022-10-12T12:02:47;17.30;99.90
23069;DHT22;11702;50.856;4.348;2022-10-12T12:05:16;17.50;99.90
23069;DHT22;11702;50.856;4.348;2022-10-12T12:13:16;18.10;99.90
23069;DHT22;11702;50.856;4.348;2022-10-12T12:18:16;18.30;99.90
23069;DHT22;11702;50.856;4.348;2022-10-12T12:23:25;18.30;99.90
23069;DHT22;11702;50.856;4.348;2022-10-12T12:26:24;18.40;99.90
23069;DHT22;11702;50.856;4.348;2022-10-12T12:29:08;18.60;99.90
23069;DHT22;11702;50.856;4.348;2022-10-12T12:31:35;18.60;99.90
23069;DHT22;11702;50.856;4.348;2022-10-12T12:34:15;18.90;99.90
23069;DHT22;11702;50.856;4.348;2022-10-12T12:36:42;18.90;99.90
23069;DHT22;11702;50.856;4.348;2022-10-12T12:39:31;18.90;99.90
23069;DHT22;11702;50.856;4.348;2022-10-12T12:42:00;19.00;99.90
23069;DHT22;11702;50.856;4.348;2022-10-12T12:44:41;19.10;99.90
23069;DHT22;11702;50.856;4.348;2022-10-12T12:49:38;18.70;99.90
23069;DHT22;11702;50.856;4.348;2022-10-12T12:52:09;18.50;99.90
23069;DHT22;11702;50.856;4.348;2022-10-12T12:57:53;18.20;99.90
23069;DHT22;11702;50.856;4.348;2022-10-12T13:00:36;18.50;99.90
23069;DHT22;11702;50.856;4.348;2022-10-12T13:03:26;18.30;99.90
23069;DHT22;11702;50.856;4.348;2022-10-12T13:11:33;18.60;99.90
23069;DHT22;11702;50.856;4.348;2022-10-12T13:17:18;18.50;99.90
23069;DHT22;11702;50.856;4.348;2022-10-12T13:19:45;18.20;99.90
23069;DHT22;11702;50.856;4.348;2022-10-12T13:22:22;17.90;99.90
23069;DHT22;11702;50.856;4.348;2022-10-12T13:24:53;17.90;99.90
23069;DHT22;11702;50.856;4.348;2022-10-12T13:27:45;17.80;99.90
23069;DHT22;11702;50.856;4.348;2022-10-12T13:33:02;17.90;99.90
23069;DHT22;11702;50.856;4.348;2022-10-12T13:36:07;18.00;99.90
23069;DHT22;11702;50.856;4.348;2022-10-12T13:38:34;18.00;99.90
23069;DHT22;11702;50.856;4.348;2022-10-12T13:46:13;18.10;99.90
23069;DHT22;11702;50.856;4.348;2022-10-12T13:48:39;18.10;99.90
23069;DHT22;11702;50.856;4.348;2022-10-12T13:51:22;18.10;99.90
23069;DHT22;11702;50.856;4.348;2022-10-12T13:53:48;18.20;99.90
23069;DHT22;11702;50.856;4.348;2022-10-12T13:56:16;18.20;99.90
23069;DHT22;11702;50.856;4.348;2022-10-12T13:58:42;18.20;99.90
23069;DHT22;11702;50.856;4.348;2022-10-12T14:01:12;18.20;99.90
23069;DHT22;11702;50.856;4.348;2022-10-12T14:03:44;18.20;99.90
23069;DHT22;11702;50.856;4.348;2022-10-12T14:06:31;18.10;99.90
23069;DHT22;11702;50.856;4.348;2022-10-12T14:09:08;18.00;99.90
23069;DHT22;11702;50.856;4.348;2022-10-12T14:11:35;18.00;99.90
23069;DHT22;11702;50.856;4.348;2022-10-12T14:14:01;17.70;99.90
23069;DHT22;11702;50.856;4.348;2022-10-12T14:16:27;17.60;99.90
23069;DHT22;11702;50.856;4.348;2022-10-12T14:18:53;17.50;99.90
23069;DHT22;11702;50.856;4.348;2022-10-12T14:21:22;17.40;99.90
23069;DHT22;11702;50.856;4.348;2022-10-12T14:24:07;17.20;99.90
23069;DHT22;11702;50.856;4.348;2022-10-12T14:26:41;17.00;99.90
23069;DHT22;11702;50.856;4.348;2022-10-12T14:32:00;16.90;99.90
23069;DHT22;11702;50.856;4.348;2022-10-12T14:37:28;17.00;99.90
23069;DHT22;11702;50.856;4.348;2022-10-12T14:39:54;17.20;99.90
23069;DHT22;11702;50.856;4.348;2022-10-12T14:42:28;17.30;99.90
23069;DHT22;11702;50.856;4.348;2022-10-12T14:44:55;17.50;99.90
23069;DHT22;11702;50.856;4.348;2022-10-12T14:47:30;17.70;99.90
23069;DHT22;11702;50.856;4.348;2022-10-12T14:49:58;17.80;99.90
23069;DHT22;11702;50.856;4.348;2022-10-12T14:52:27;17.80;99.90
23069;DHT22;11702;50.856;4.348;2022-10-12T14:54:58;17.90;99.90
23069;DHT22;11702;50.856;4.348;2022-10-12T14:58:01;18.00;99.90
23069;DHT22;11702;50.856;4.348;2022-10-12T15:01:05;17.90;99.90
23069;DHT22;11702;50.856;4.348;2022-10-12T15:03:59;17.80;99.90
23069;DHT22;11702;50.856;4.348;2022-10-12T15:06:30;17.90;99.90
23069;DHT22;11702;50.856;4.348;2022-10-12T15:09:03;17.90;99.90
23069;DHT22;11702;50.856;4.348;2022-10-12T15:11:30;17.90;99.90
23069;DHT22;11702;50.856;4.348;2022-10-12T15:13:59;17.90;99.90
23069;DHT22;11702;50.856;4.348;2022-10-12T15:16:49;18.00;99.90
23069;DHT22;11702;50.856;4.348;2022-10-12T15:19:21;18.00;99.90
23069;DHT22;11702;50.856;4.348;2022-10-12T15:22:25;18.00;99.90
23069;DHT22;11702;50.856;4.348;2022-10-12T15:24:57;17.90;99.90
23069;DHT22;11702;50.856;4.348;2022-10-12T15:27:34;18.00;99.90
23069;DHT22;11702;50.856;4.348;2022-10-12T15:30:03;17.90;99.90
23069;DHT22;11702;50.856;4.348;2022-10-12T15:32:32;17.90;99.90
23069;DHT22;11702;50.856;4.348;2022-10-12T15:35:21;17.90;99.90
23069;DHT22;11702;50.856;4.348;2022-10-12T15:38:20;17.80;99.90
23069;DHT22;11702;50.856;4.348;2022-10-12T15:40:50;17.60;99.90
23069;DHT22;11702;50.856;4.348;2022-10-12T15:43:24;17.30;99.90
23069;DHT22;11702;50.856;4.348;2022-10-12T15:46:11;17.20;99.90
23069;DHT22;11702;50.856;4.348;2022-10-12T15:48:41;16.90;99.90
23069;DHT22;11702;50.856;4.348;2022-10-12T15:51:18;16.70;99.90
23069;DHT22;11702;50.856;4.348;2022-10-12T15:53:49;16.60;99.90
23069;DHT22;11702;50.856;4.348;2022-10-12T15:56:18;16.50;99.90
23069;DHT22;11702;50.856;4.348;2022-10-12T15:58:48;16.40;99.90
23069;DHT22;11702;50.856;4.348;2022-10-12T16:01:18;16.20;99.90
23069;DHT22;11702;50.856;4.348;2022-10-12T16:03:47;16.30;99.90
23069;DHT22;11702;50.856;4.348;2022-10-12T16:06:24;16.20;99.90
23069;DHT22;11702;50.856;4.348;2022-10-12T16:08:52;16.10;99.90
23069;DHT22;11702;50.856;4.348;2022-10-12T16:11:23;16.10;99.90
23069;DHT22;11702;50.856;4.348;2022-10-12T16:13:49;16.00;99.90
23069;DHT22;11702;50.856;4.348;2022-10-12T16:16:17;16.00;99.90
23069;DHT22;11702;50.856;4.348;2022-10-12T16:18:43;16.00;99.90
23069;DHT22;11702;50.856;4.348;2022-10-12T16:21:09;15.90;99.90
23069;DHT22;11702;50.856;4.348;2022-10-12T16:23:38;16.00;99.90
23069;DHT22;11702;50.856;4.348;2022-10-12T16:26:13;15.90;99.90
23069;DHT22;11702;50.856;4.348;2022-10-12T16:28:47;15.80;99.90
23069;DHT22;11702;50.856;4.348;2022-10-12T16:31:28;15.80;99.90
23069;DHT22;11702;50.856;4.348;2022-10-12T16:33:59;15.80;99.90
23069;DHT22;11702;50.856;4.348;2022-10-12T16:36:28;15.80;99.90
23069;DHT22;11702;50.856;4.348;2022-10-12T16:38:59;15.80;99.90
23069;DHT22;11702;50.856;4.348;2022-10-12T16:41:46;15.70;99.90
23069;DHT22;11702;50.856;4.348;2022-10-12T16:44:13;15.70;99.90
23069;DHT22;11702;50.856;4.348;2022-10-12T16:46:46;15.70;99.90
23069;DHT22;11702;50.856;4.348;2022-10-12T16:49:15;15.60;99.90
23069;DHT22;11702;50.856;4.348;2022-10-12T16:51:42;15.50;99.90
23069;DHT22;11702;50.856;4.348;2022-10-12T16:54:11;15.40;99.90
23069;DHT22;11702;50.856;4.348;2022-10-12T16:56:48;15.30;99.90
23069;DHT22;11702;50.856;4.348;2022-10-12T16:59:18;15.20;99.90
23069;DHT22;11702;50.856;4.348;2022-10-12T17:01:46;15.10;99.90
23069;DHT22;11702;50.856;4.348;2022-10-12T17:04:12;15.00;99.90
23069;DHT22;11702;50.856;4.348;2022-10-12T17:06:50;15.00;99.90
23069;DHT22;11702;50.856;4.348;2022-10-12T17:09:20;15.00;99.90
23069;DHT22;11702;50.856;4.348;2022-10-12T17:11:47;15.00;99.90
23069;DHT22;11702;50.856;4.348;2022-10-12T17:14:14;14.90;99.90
23069;DHT22;11702;50.856;4.348;2022-10-12T17:16:42;14.90;99.90
23069;DHT22;11702;50.856;4.348;2022-10-12T17:19:42;14.80;99.90
23069;DHT22;11702;50.856;4.348;2022-10-12T17:22:13;14.70;99.90
23069;DHT22;11702;50.856;4.348;2022-10-12T17:24:50;14.70;99.90
23069;DHT22;11702;50.856;4.348;2022-10-12T17:28:01;14.70;99.90
23069;DHT22;11702;50.856;4.348;2022-10-12T17:30:43;14.70;99.90
23069;DHT22;11702;50.856;4.348;2022-10-12T17:33:11;14.70;99.90
23069;DHT22;11702;50.856;4.348;2022-10-12T17:35:40;14.70;99.90
23069;DHT22;11702;50.856;4.348;2022-10-12T17:38:11;14.70;99.90